createdAt,value
2023-04-20T00:00:11.042Z,6.01
2023-04-20T00:02:21.902Z,5.98
2023-04-20T00:04:27.056Z,5.98
2023-04-20T00:06:33.150Z,5.96
2023-04-20T00:08:38.217Z,5.95
2023-04-20T00:10:43.540Z,5.93
2023-04-20T00:12:48.923Z,5.99
2023-04-20T00:14:54.002Z,5.99
2023-04-20T00:16:59.752Z,5.98
2023-04-20T00:19:08.392Z,5.98
2023-04-20T00:21:13.703Z,6.04
2023-04-20T00:23:18.827Z,6.00
2023-04-20T00:25:24.622Z,5.94
2023-04-20T00:27:30.950Z,5.97
2023-04-20T00:29:36.806Z,5.96
2023-04-20T00:31:43.769Z,5.91
2023-04-20T00:33:52.382Z,5.90
2023-04-20T00:35:59.964Z,5.91
2023-04-20T00:38:04.982Z,5.90
2023-04-20T00:40:11.966Z,5.85
2023-04-20T00:42:17.399Z,5.82
2023-04-20T00:44:22.940Z,5.82
2023-04-20T00:46:28.086Z,5.81
2023-04-20T00:48:33.167Z,5.78
2023-04-20T00:50:40.123Z,5.76
2023-04-20T00:52:48.361Z,5.75
2023-04-20T00:54:53.704Z,5.72
2023-04-20T00:56:59.403Z,5.71
2023-04-20T00:59:05.419Z,5.66
2023-04-20T01:01:10.498Z,5.66
2023-04-20T01:03:16.984Z,5.58
2023-04-20T01:05:27.030Z,5.58
2023-04-20T01:07:33.721Z,5.50
2023-04-20T01:09:43.404Z,5.45
2023-04-20T01:11:48.421Z,5.42
2023-04-20T01:13:54.703Z,5.41
2023-04-20T01:16:03.777Z,5.35
2023-04-20T01:18:09.993Z,5.31
2023-04-20T01:20:16.546Z,5.31
2023-04-20T01:22:25.570Z,5.24
2023-04-20T01:24:31.923Z,5.24
2023-04-20T01:26:37.439Z,5.21
2023-04-20T01:28:42.963Z,5.23
2023-04-20T01:30:48.541Z,5.21
2023-04-20T01:32:53.724Z,5.17
2023-04-20T01:34:59.819Z,5.17
2023-04-20T01:37:08.271Z,5.20
2023-04-20T01:39:16.600Z,5.22
2023-04-20T01:41:22.311Z,5.17
2023-04-20T01:43:27.518Z,5.13
2023-04-20T01:45:32.618Z,5.11
2023-04-20T01:47:38.859Z,5.11
2023-04-20T01:49:45.434Z,5.15
2023-04-20T01:51:50.655Z,5.07
2023-04-20T01:53:56.222Z,5.04
2023-04-20T01:56:03.855Z,4.98
2023-04-20T01:58:08.892Z,4.95
2023-04-20T02:00:16.329Z,4.93
2023-04-20T02:02:22.360Z,4.93
2023-04-20T02:04:28.146Z,4.87
2023-04-20T02:06:34.252Z,4.85
2023-04-20T02:08:39.913Z,4.91
2023-04-20T02:10:46.344Z,4.97
2023-04-20T02:12:54.084Z,4.91
2023-04-20T02:14:59.607Z,4.87
2023-04-20T02:17:05.681Z,4.87
2023-04-20T02:19:10.975Z,4.80
2023-04-20T02:21:16.644Z,4.76
2023-04-20T02:23:22.126Z,4.78
2023-04-20T02:25:28.516Z,4.72
2023-04-20T02:27:33.593Z,4.66
2023-04-20T02:29:41.658Z,4.64
2023-04-20T02:31:47.085Z,4.53
2023-04-20T02:33:54.220Z,4.55
2023-04-20T02:35:59.562Z,4.53
2023-04-20T02:38:07.628Z,4.48
2023-04-20T02:40:13.889Z,4.38
2023-04-20T02:42:18.979Z,4.40
2023-04-20T02:44:26.109Z,4.42
2023-04-20T02:46:33.880Z,4.44
2023-04-20T02:48:39.011Z,4.42
2023-04-20T02:50:45.538Z,4.30
2023-04-20T02:52:57.026Z,4.29
2023-04-20T02:55:02.816Z,4.25
2023-04-20T02:57:07.843Z,4.25
2023-04-20T02:59:13.252Z,4.25
2023-04-20T03:01:27.904Z,4.28
2023-04-20T03:03:44.381Z,4.29
2023-04-20T03:05:50.872Z,4.26
2023-04-20T03:07:56.236Z,4.28
2023-04-20T03:10:04.591Z,4.26
2023-04-20T03:12:26.320Z,4.22
2023-04-20T03:14:50.689Z,4.23
2023-04-20T03:16:59.855Z,4.24
2023-04-20T03:19:08.017Z,4.28
2023-04-20T03:21:15.068Z,4.18
2023-04-20T03:23:20.086Z,4.19
2023-04-20T03:25:25.873Z,4.14
2023-04-20T03:27:37.958Z,4.05
2023-04-20T03:29:48.980Z,4.06
2023-04-20T03:31:55.675Z,4.01
2023-04-20T03:34:00.798Z,3.97
2023-04-20T03:36:09.934Z,3.93
2023-04-20T03:38:15.088Z,3.88
2023-04-20T03:40:20.558Z,3.94
2023-04-20T03:42:26.097Z,3.94
2023-04-20T03:44:32.794Z,3.90
2023-04-20T03:46:38.450Z,3.85
2023-04-20T03:48:43.490Z,3.88
2023-04-20T03:50:49.192Z,3.82
2023-04-20T03:52:56.827Z,3.84
2023-04-20T03:55:02.094Z,3.82
2023-04-20T03:57:07.430Z,3.86
2023-04-20T03:59:13.215Z,3.89
2023-04-20T04:01:21.678Z,3.92
2023-04-20T04:03:28.243Z,3.92
2023-04-20T04:05:33.794Z,3.99
2023-04-20T04:07:40.210Z,3.90
2023-04-20T04:09:47.802Z,3.92
2023-04-20T04:11:54.180Z,3.89
2023-04-20T04:14:01.379Z,3.88
2023-04-20T04:16:08.282Z,3.82
2023-04-20T04:18:14.048Z,3.83
2023-04-20T04:20:20.551Z,3.85
2023-04-20T04:22:25.760Z,3.86
2023-04-20T04:24:54.757Z,3.87
2023-04-20T04:27:05.355Z,3.85
2023-04-20T04:29:14.709Z,3.78
2023-04-20T04:31:21.630Z,3.75
2023-04-20T04:33:27.238Z,3.70
2023-04-20T04:35:33.537Z,3.71
2023-04-20T04:37:39.472Z,3.76
2023-04-20T04:39:45.279Z,3.80
2023-04-20T04:42:10.232Z,3.85
2023-04-20T04:44:19.796Z,3.90
2023-04-20T04:46:25.674Z,3.84
2023-04-20T04:48:31.074Z,3.84
2023-04-20T04:50:36.333Z,3.86
2023-04-20T04:52:41.744Z,3.88
2023-04-20T04:54:47.254Z,3.87
2023-04-20T04:56:52.265Z,3.90
2023-04-20T04:59:00.234Z,3.99
2023-04-20T05:01:05.226Z,3.98
2023-04-20T05:03:10.811Z,3.95
2023-04-20T05:05:17.274Z,3.93
2023-04-20T05:07:22.578Z,4.03
2023-04-20T05:09:33.968Z,4.04
2023-04-20T05:11:39.428Z,4.07
2023-04-20T05:13:44.424Z,4.03
2023-04-20T05:15:52.482Z,4.12
2023-04-20T05:17:58.322Z,4.09
2023-04-20T05:20:06.363Z,4.17
2023-04-20T05:22:12.167Z,4.24
2023-04-20T05:24:17.796Z,4.29
2023-04-20T05:26:23.370Z,4.28
2023-04-20T05:28:28.709Z,4.31
2023-04-20T05:30:33.858Z,4.37
2023-04-20T05:32:42.201Z,4.44
2023-04-20T05:34:47.261Z,4.47
2023-04-20T05:36:52.426Z,4.57
2023-04-20T05:38:57.991Z,4.47
2023-04-20T05:41:03.334Z,4.48
2023-04-20T05:43:08.753Z,4.54
2023-04-20T05:45:15.010Z,4.63
2023-04-20T05:47:20.044Z,4.63
2023-04-20T05:49:27.794Z,4.73
2023-04-20T05:51:34.153Z,4.78
2023-04-20T05:53:39.649Z,4.84
2023-04-20T05:55:44.672Z,4.97
2023-04-20T05:57:50.264Z,4.90
2023-04-20T05:59:56.148Z,5.07
2023-04-20T06:02:01.293Z,5.21
2023-04-20T06:04:06.650Z,5.21
2023-04-20T06:06:16.812Z,5.24
2023-04-20T06:08:21.952Z,5.35
2023-04-20T06:10:32.393Z,5.42
2023-04-20T06:12:38.293Z,5.56
2023-04-20T06:14:43.287Z,5.61
2023-04-20T06:16:48.290Z,5.57
2023-04-20T06:18:53.788Z,5.68
2023-04-20T06:21:00.100Z,5.69
2023-04-20T06:23:08.013Z,5.72
2023-04-20T06:25:13.617Z,5.85
2023-04-20T06:27:18.624Z,5.84
2023-04-20T06:29:24.351Z,5.96
2023-04-20T06:31:29.410Z,6.07
2023-04-20T06:33:35.143Z,6.08
2023-04-20T06:35:40.359Z,6.28
2023-04-20T06:37:45.403Z,6.24
2023-04-20T06:39:56.856Z,6.32
2023-04-20T06:42:02.607Z,6.29
2023-04-20T06:44:08.666Z,6.46
2023-04-20T06:46:13.720Z,6.57
2023-04-20T06:48:31.373Z,6.56
2023-04-20T06:50:37.746Z,6.66
2023-04-20T06:52:44.215Z,6.75
2023-04-20T06:54:52.079Z,6.90
2023-04-20T06:56:57.273Z,7.07
2023-04-20T06:59:02.581Z,7.25
2023-04-20T07:01:08.365Z,7.38
2023-04-20T07:03:13.848Z,7.40
2023-04-20T07:05:21.173Z,7.59
2023-04-20T07:07:26.228Z,7.57
2023-04-20T07:09:31.396Z,7.74
2023-04-20T07:11:39.114Z,7.91
2023-04-20T07:13:44.379Z,8.06
2023-04-20T07:15:49.644Z,7.99
2023-04-20T07:17:54.728Z,7.98
2023-04-20T07:20:06.845Z,8.04
2023-04-20T07:22:11.868Z,8.04
2023-04-20T07:24:16.855Z,7.93
2023-04-20T07:26:21.877Z,7.90
2023-04-20T07:28:29.451Z,7.97
2023-04-20T07:30:34.951Z,8.36
2023-04-20T07:32:41.907Z,8.50
2023-04-20T07:34:46.962Z,8.52
2023-04-20T07:36:52.178Z,8.38
2023-04-20T07:38:57.252Z,8.22
2023-04-20T07:41:02.584Z,8.14
2023-04-20T07:43:07.587Z,8.21
2023-04-20T07:45:17.139Z,8.17
2023-04-20T07:47:22.203Z,8.27
2023-04-20T07:49:27.525Z,8.33
2023-04-20T07:51:34.519Z,8.56
2023-04-20T07:53:39.517Z,8.60
2023-04-20T07:55:44.554Z,9.16
2023-04-20T07:57:49.555Z,9.17
2023-04-20T07:59:54.789Z,9.14
2023-04-20T08:02:06.202Z,9.25
2023-04-20T08:04:11.549Z,8.75
2023-04-20T08:06:16.895Z,8.74
2023-04-20T08:08:22.072Z,8.60
2023-04-20T08:10:27.523Z,8.62
2023-04-20T08:12:33.740Z,8.72
2023-04-20T08:14:38.766Z,8.63
2023-04-20T08:16:44.837Z,8.75
2023-04-20T08:18:52.430Z,8.77
2023-04-20T08:20:57.735Z,8.88
2023-04-20T08:23:02.733Z,8.90
2023-04-20T08:25:08.735Z,8.92
2023-04-20T08:27:13.747Z,9.16
2023-04-20T08:29:19.069Z,9.21
2023-04-20T08:31:24.125Z,9.35
2023-04-20T08:33:29.381Z,9.61
2023-04-20T08:35:37.047Z,9.89
2023-04-20T08:37:43.244Z,10.23
2023-04-20T08:39:48.493Z,10.61
2023-04-20T08:41:55.842Z,10.83
2023-04-20T08:44:01.239Z,11.11
2023-04-20T08:46:06.337Z,11.69
2023-04-20T08:48:13.348Z,11.56
2023-04-20T08:50:19.363Z,11.96
2023-04-20T08:52:26.961Z,11.86
2023-04-20T08:54:32.611Z,11.70
2023-04-20T08:56:40.679Z,12.10
2023-04-20T08:58:45.859Z,11.77
2023-04-20T09:00:51.590Z,11.97
2023-04-20T09:02:59.217Z,12.78
2023-04-20T09:05:06.303Z,13.29
2023-04-20T09:07:21.563Z,13.43
2023-04-20T09:09:29.244Z,13.72
2023-04-20T09:11:34.287Z,13.87
2023-04-20T09:13:39.689Z,13.88
2023-04-20T09:15:45.008Z,13.66
2023-04-20T09:17:50.053Z,13.12
2023-04-20T09:19:57.091Z,12.98
2023-04-20T09:22:06.779Z,12.72
2023-04-20T09:24:12.062Z,12.10
2023-04-20T09:26:23.404Z,11.92
2023-04-20T09:28:39.556Z,11.56
2023-04-20T09:30:47.796Z,11.70
2023-04-20T09:33:03.168Z,11.54
2023-04-20T09:35:10.070Z,12.08
2023-04-20T09:37:18.752Z,12.94
2023-04-20T09:39:25.679Z,13.74
2023-04-20T09:41:34.830Z,13.56
2023-04-20T09:43:40.465Z,13.50
2023-04-20T09:45:46.521Z,12.89
2023-04-20T09:47:52.728Z,12.54
2023-04-20T09:50:00.105Z,12.28
2023-04-20T09:52:07.236Z,12.67
2023-04-20T09:54:13.578Z,12.39
2023-04-20T09:56:21.069Z,12.21
2023-04-20T09:58:29.071Z,12.20
2023-04-20T10:00:34.258Z,12.38
2023-04-20T10:02:39.760Z,12.78
2023-04-20T10:04:59.627Z,12.75
2023-04-20T10:07:06.463Z,12.81
2023-04-20T10:09:23.439Z,13.17
2023-04-20T10:11:44.526Z,12.95
2023-04-20T10:13:57.340Z,13.01
2023-04-20T10:16:02.655Z,13.33
2023-04-20T10:18:20.561Z,14.05
2023-04-20T10:20:29.649Z,14.14
2023-04-20T10:22:35.974Z,13.44
2023-04-20T10:24:42.197Z,12.84
2023-04-20T10:26:48.917Z,12.84
2023-04-20T10:28:56.517Z,13.03
2023-04-20T10:31:02.241Z,13.02
2023-04-20T10:33:10.114Z,12.89
2023-04-20T10:35:16.361Z,13.37
2023-04-20T10:37:21.430Z,13.56
2023-04-20T10:39:27.730Z,13.45
2023-04-20T10:41:33.537Z,13.61
2023-04-20T10:43:42.263Z,13.34
2023-04-20T10:45:50.793Z,13.56
2023-04-20T10:47:56.696Z,13.46
2023-04-20T10:50:13.872Z,13.22
2023-04-20T10:52:21.829Z,13.19
2023-04-20T10:54:27.226Z,13.11
2023-04-20T10:56:41.248Z,13.00
2023-04-20T10:58:46.261Z,13.00
2023-04-20T11:01:03.999Z,12.78
2023-04-20T11:03:09.791Z,12.60
2023-04-20T11:05:16.133Z,12.45
2023-04-20T11:07:21.720Z,12.20
2023-04-20T11:09:29.001Z,12.53
2023-04-20T11:11:37.421Z,13.39
2023-04-20T11:13:42.563Z,13.86
2023-04-20T11:15:47.890Z,14.70
2023-04-20T11:17:55.806Z,15.11
2023-04-20T11:20:11.058Z,15.25
2023-04-20T11:22:25.605Z,14.62
2023-04-20T11:24:34.077Z,13.91
2023-04-20T11:26:44.235Z,13.59
2023-04-20T11:28:57.286Z,13.28
2023-04-20T11:31:02.529Z,13.13
2023-04-20T11:33:10.833Z,13.33
2023-04-20T11:35:16.287Z,13.62
2023-04-20T11:37:21.469Z,13.94
2023-04-20T11:39:27.528Z,14.02
2023-04-20T11:41:32.757Z,14.07
2023-04-20T11:43:39.030Z,14.18
2023-04-20T11:45:44.458Z,13.97
2023-04-20T11:47:49.797Z,13.95
2023-04-20T11:49:57.441Z,14.05
2023-04-20T11:52:02.674Z,14.15
2023-04-20T11:54:07.873Z,14.54
2023-04-20T11:56:12.894Z,15.10
2023-04-20T11:58:18.242Z,14.75
2023-04-20T12:00:24.640Z,14.39
2023-04-20T12:02:30.152Z,13.67
2023-04-20T12:04:36.050Z,13.05
2023-04-20T12:06:44.190Z,12.47
2023-04-20T12:08:49.272Z,12.05
2023-04-20T12:10:55.489Z,11.74
2023-04-20T12:13:02.496Z,11.57
2023-04-20T12:15:09.658Z,11.39
2023-04-20T12:17:14.701Z,11.54
2023-04-20T12:19:20.446Z,11.64
2023-04-20T12:21:25.980Z,11.88
2023-04-20T12:23:34.154Z,12.07
2023-04-20T12:25:39.188Z,12.06
2023-04-20T12:27:44.424Z,12.01
2023-04-20T12:29:49.440Z,11.88
2023-04-20T12:31:54.778Z,11.76
2023-04-20T12:34:00.244Z,11.86
2023-04-20T12:36:05.406Z,11.82
2023-04-20T12:38:12.359Z,11.78
2023-04-20T12:40:21.555Z,11.82
2023-04-20T12:42:27.184Z,11.72
2023-04-20T12:44:32.509Z,11.28
2023-04-20T12:46:37.591Z,11.03
2023-04-20T12:48:42.911Z,10.76
2023-04-20T12:50:48.186Z,10.46
2023-04-20T12:52:56.194Z,10.46
2023-04-20T12:55:01.571Z,10.28
2023-04-20T12:57:09.261Z,10.41
2023-04-20T12:59:14.463Z,10.51
2023-04-20T13:01:19.962Z,10.58
2023-04-20T13:03:25.448Z,10.66
2023-04-20T13:05:31.212Z,10.70
2023-04-20T13:07:36.726Z,10.59
2023-04-20T13:09:42.097Z,10.50
2023-04-20T13:11:47.414Z,10.52
2023-04-20T13:13:56.610Z,10.57
2023-04-20T13:16:01.654Z,10.64
2023-04-20T13:18:07.230Z,10.54
2023-04-20T13:20:14.134Z,10.36
2023-04-20T13:22:19.734Z,10.22
2023-04-20T13:24:24.761Z,10.20
2023-04-20T13:26:29.815Z,10.10
2023-04-20T13:28:35.113Z,9.93
2023-04-20T13:30:42.737Z,9.91
2023-04-20T13:32:47.801Z,9.88
2023-04-20T13:34:52.838Z,9.76
2023-04-20T13:36:58.423Z,9.68
2023-04-20T13:39:05.201Z,9.64
2023-04-20T13:41:10.234Z,9.64
2023-04-20T13:43:15.792Z,9.60
2023-04-20T13:45:21.290Z,9.55
2023-04-20T13:47:29.035Z,9.53
2023-04-20T13:49:34.239Z,9.60
2023-04-20T13:51:39.647Z,9.61
2023-04-20T13:53:44.717Z,9.62
2023-04-20T13:55:49.714Z,9.85
2023-04-20T13:57:55.499Z,9.87
2023-04-20T14:00:01.302Z,10.06
2023-04-20T14:02:11.177Z,10.11
2023-04-20T14:04:19.510Z,10.15
2023-04-20T14:06:25.882Z,10.14
2023-04-20T14:08:31.003Z,10.06
2023-04-20T14:10:39.891Z,9.79
2023-04-20T14:12:44.924Z,9.64
2023-04-20T14:14:50.277Z,9.53
2023-04-20T14:16:55.294Z,9.47
2023-04-20T14:19:00.776Z,9.48
2023-04-20T14:21:09.223Z,9.42
2023-04-20T14:23:14.969Z,9.35
2023-04-20T14:25:20.467Z,9.23
2023-04-20T14:27:25.521Z,9.22
2023-04-20T14:29:30.965Z,9.24
2023-04-20T14:31:37.287Z,9.16
2023-04-20T14:33:44.724Z,9.18
2023-04-20T14:35:50.140Z,9.18
2023-04-20T14:37:57.771Z,9.12
2023-04-20T14:40:03.396Z,9.07
2023-04-20T14:42:08.779Z,9.01
2023-04-20T14:44:13.831Z,9.01
2023-04-20T14:46:19.258Z,9.03
2023-04-20T14:48:25.176Z,9.08
2023-04-20T14:50:32.722Z,9.08
2023-04-20T14:52:37.892Z,9.05
2023-04-20T14:54:45.712Z,9.02
2023-04-20T14:56:51.124Z,9.01
2023-04-20T14:58:57.382Z,8.99
2023-04-20T15:01:02.755Z,8.97
2023-04-20T15:03:07.997Z,9.00
2023-04-20T15:05:13.881Z,9.01
2023-04-20T15:07:19.412Z,9.07
2023-04-20T15:09:24.603Z,9.04
2023-04-20T15:11:32.186Z,8.96
2023-04-20T15:13:41.142Z,8.96
2023-04-20T15:15:48.935Z,8.95
2023-04-20T15:17:54.784Z,8.97
2023-04-20T15:19:59.805Z,8.94
2023-04-20T15:22:04.835Z,8.92
2023-04-20T15:24:10.608Z,8.92
2023-04-20T15:26:16.158Z,8.96
2023-04-20T15:28:23.805Z,8.92
2023-04-20T15:30:28.863Z,8.94
2023-04-20T15:32:34.200Z,8.89
2023-04-20T15:34:39.263Z,8.88
2023-04-20T15:36:44.653Z,8.85
2023-04-20T15:38:49.773Z,8.80
2023-04-20T15:40:55.898Z,8.87
2023-04-20T15:43:02.893Z,8.87
2023-04-20T15:45:11.990Z,8.87
2023-04-20T15:47:17.040Z,8.85
2023-04-20T15:49:22.638Z,8.95
2023-04-20T15:51:28.304Z,8.83
2023-04-20T15:53:33.417Z,8.79
2023-04-20T15:55:41.435Z,8.76
2023-04-20T15:57:46.457Z,8.70
2023-04-20T15:59:51.453Z,8.73
2023-04-20T16:01:59.812Z,8.68
2023-04-20T16:04:04.996Z,8.76
2023-04-20T16:06:10.689Z,8.72
2023-04-20T16:08:18.973Z,8.75
2023-04-20T16:10:24.058Z,8.73
2023-04-20T16:12:29.259Z,8.76
2023-04-20T16:14:34.559Z,8.86
2023-04-20T16:16:39.567Z,8.94
2023-04-20T16:18:48.317Z,9.08
2023-04-20T16:20:53.731Z,9.02
2023-04-20T16:22:58.735Z,9.15
2023-04-20T16:25:03.759Z,9.15
2023-04-20T16:27:08.774Z,9.10
2023-04-20T16:29:13.997Z,9.15
2023-04-20T16:31:19.030Z,9.17
2023-04-20T16:33:24.486Z,9.19
2023-04-20T16:35:32.383Z,9.25
2023-04-20T16:37:37.409Z,9.21
2023-04-20T16:39:43.128Z,9.23
2023-04-20T16:41:48.211Z,9.12
2023-04-20T16:43:53.203Z,9.14
2023-04-20T16:45:58.256Z,9.24
2023-04-20T16:48:03.430Z,9.25
2023-04-20T16:50:10.284Z,9.24
2023-04-20T16:52:17.873Z,9.25
2023-04-20T16:54:23.353Z,9.23
2023-04-20T16:56:28.502Z,9.32
2023-04-20T16:58:34.080Z,9.26
2023-04-20T17:00:39.788Z,9.23
2023-04-20T17:02:45.005Z,9.17
2023-04-20T17:04:50.526Z,9.10
2023-04-20T17:06:55.767Z,9.08
2023-04-20T17:09:07.129Z,9.14
2023-04-20T17:11:12.389Z,9.14
2023-04-20T17:13:18.477Z,9.08
2023-04-20T17:15:23.671Z,9.05
2023-04-20T17:17:29.034Z,9.04
2023-04-20T17:19:35.288Z,9.01
2023-04-20T17:21:40.796Z,9.06
2023-04-20T17:23:46.223Z,8.98
2023-04-20T17:25:54.762Z,8.98
2023-04-20T17:28:00.058Z,8.94
2023-04-20T17:30:05.977Z,8.96
2023-04-20T17:32:11.223Z,8.95
2023-04-20T17:34:16.683Z,8.98
2023-04-20T17:36:21.839Z,8.99
2023-04-20T17:38:27.045Z,9.01
2023-04-20T17:40:32.262Z,9.03
2023-04-20T17:42:39.896Z,8.92
2023-04-20T17:44:45.195Z,8.90
2023-04-20T17:46:52.459Z,8.83
2023-04-20T17:48:57.736Z,8.86
2023-04-20T17:51:03.090Z,8.79
2023-04-20T17:53:09.138Z,8.80
2023-04-20T17:55:14.706Z,8.76
2023-04-20T17:57:19.705Z,8.78
2023-04-20T17:59:28.607Z,8.79
2023-04-20T18:01:36.057Z,8.76
2023-04-20T18:03:42.558Z,8.68
2023-04-20T18:05:48.638Z,8.64
2023-04-20T18:07:53.730Z,8.69
2023-04-20T18:09:58.760Z,8.75
2023-04-20T18:12:04.116Z,8.67
2023-04-20T18:14:09.402Z,8.64
2023-04-20T18:16:17.556Z,8.63
2023-04-20T18:18:22.818Z,8.54
2023-04-20T18:20:29.443Z,8.50
2023-04-20T18:22:36.056Z,8.49
2023-04-20T18:24:41.318Z,8.57
2023-04-20T18:26:46.313Z,8.58
2023-04-20T18:28:51.295Z,8.54
2023-04-20T18:30:58.924Z,8.46
2023-04-20T18:33:06.945Z,8.49
2023-04-20T18:35:13.756Z,8.44
2023-04-20T18:37:19.018Z,8.43
2023-04-20T18:39:24.030Z,8.44
2023-04-20T18:41:30.509Z,8.47
2023-04-20T18:43:35.522Z,8.51
2023-04-20T18:45:40.533Z,8.41
2023-04-20T18:47:46.175Z,8.52
2023-04-20T18:49:54.226Z,8.55
2023-04-20T18:51:59.269Z,8.44
2023-04-20T18:54:04.277Z,8.50
2023-04-20T18:56:10.289Z,8.51
2023-04-20T18:58:15.450Z,8.55
2023-04-20T19:00:21.638Z,8.51
2023-04-20T19:02:27.500Z,8.52
2023-04-20T19:04:33.052Z,8.44
2023-04-20T19:06:40.756Z,8.43
2023-04-20T19:08:45.802Z,8.48
2023-04-20T19:10:50.812Z,8.49
2023-04-20T19:12:55.832Z,8.46
2023-04-20T19:15:00.807Z,8.48
2023-04-20T19:17:08.534Z,8.44
2023-04-20T19:19:13.551Z,8.45
2023-04-20T19:21:21.002Z,8.40
2023-04-20T19:23:29.620Z,8.44
2023-04-20T19:25:37.147Z,8.46
2023-04-20T19:27:42.225Z,8.37
2023-04-20T19:29:47.296Z,8.39
2023-04-20T19:31:52.347Z,8.36
2023-04-20T19:33:57.431Z,8.35
2023-04-20T19:36:03.532Z,8.36
2023-04-20T19:38:08.519Z,8.39
2023-04-20T19:40:16.402Z,8.46
2023-04-20T19:42:22.940Z,8.50
2023-04-20T19:44:28.302Z,8.47
2023-04-20T19:46:33.586Z,8.48
2023-04-20T19:48:38.926Z,8.50
2023-04-20T19:50:43.937Z,8.54
2023-04-20T19:52:49.065Z,8.59
2023-04-20T19:54:54.070Z,8.72
2023-04-20T19:57:01.886Z,8.76
2023-04-20T19:59:06.980Z,8.72
2023-04-20T20:01:12.282Z,8.73
2023-04-20T20:03:17.871Z,8.75
2023-04-20T20:05:23.080Z,8.77
2023-04-20T20:07:28.788Z,8.78
2023-04-20T20:09:33.867Z,8.77
2023-04-20T20:11:39.000Z,8.74
2023-04-20T20:13:46.606Z,8.74
2023-04-20T20:15:51.877Z,8.67
2023-04-20T20:17:58.823Z,8.68
2023-04-20T20:20:06.237Z,8.68
2023-04-20T20:22:11.646Z,8.67
2023-04-20T20:24:16.730Z,8.62
2023-04-20T20:26:21.854Z,8.64
2023-04-20T20:28:27.053Z,8.61
2023-04-20T20:30:35.021Z,8.66
2023-04-20T20:32:41.272Z,8.65
2023-04-20T20:34:46.528Z,8.60
2023-04-20T20:36:53.389Z,8.60
2023-04-20T20:38:58.489Z,8.57
2023-04-20T20:41:04.237Z,8.55
2023-04-20T20:43:10.921Z,8.55
2023-04-20T20:45:16.494Z,8.49
2023-04-20T20:47:24.082Z,8.53
2023-04-20T20:49:29.225Z,8.50
2023-04-20T20:51:34.484Z,8.57
2023-04-20T20:53:40.178Z,8.61
2023-04-20T20:55:45.191Z,8.65
2023-04-20T20:57:50.471Z,8.64
2023-04-20T20:59:55.721Z,8.70
2023-04-20T21:02:00.852Z,8.68
2023-04-20T21:04:08.659Z,8.74
2023-04-20T21:06:14.152Z,8.61
2023-04-20T21:08:19.373Z,8.55
2023-04-20T21:10:24.443Z,8.60
2023-04-20T21:12:29.569Z,8.63
2023-04-20T21:14:34.655Z,8.56
2023-04-20T21:16:40.119Z,8.68
2023-04-20T21:18:45.221Z,8.62
2023-04-20T21:20:52.807Z,8.53
2023-04-20T21:22:57.809Z,8.52
2023-04-20T21:25:02.829Z,8.57
2023-04-20T21:27:08.095Z,8.48
2023-04-20T21:29:13.209Z,8.63
2023-04-20T21:31:18.199Z,8.85
2023-04-20T21:33:23.566Z,8.76
2023-04-20T21:35:28.596Z,8.60
2023-04-20T21:37:36.634Z,8.50
2023-04-20T21:39:41.804Z,8.44
2023-04-20T21:41:47.189Z,8.53
2023-04-20T21:43:55.086Z,8.72
2023-04-20T21:46:00.131Z,8.71
2023-04-20T21:48:05.883Z,8.64
2023-04-20T21:50:11.796Z,8.62
2023-04-20T21:52:16.790Z,8.75
2023-04-20T21:54:24.420Z,8.75
2023-04-20T21:56:29.489Z,8.68
2023-04-20T21:58:35.010Z,8.83
2023-04-20T22:00:39.998Z,8.82
2023-04-20T22:02:45.537Z,8.78
2023-04-20T22:04:51.240Z,8.76
2023-04-20T22:06:56.449Z,8.82
2023-04-20T22:09:01.947Z,8.78
2023-04-20T22:11:10.000Z,8.89
2023-04-20T22:13:16.375Z,8.85
2023-04-20T22:15:22.434Z,8.75
2023-04-20T22:17:29.897Z,8.77
2023-04-20T22:19:34.914Z,8.74
2023-04-20T22:21:40.626Z,8.62
2023-04-20T22:23:45.657Z,8.71
2023-04-20T22:25:50.677Z,8.65
2023-04-20T22:27:58.265Z,8.61
2023-04-20T22:30:03.697Z,8.54
2023-04-20T22:32:09.207Z,8.68
2023-04-20T22:34:14.214Z,8.59
2023-04-20T22:36:19.276Z,8.61
2023-04-20T22:38:24.318Z,8.69
2023-04-20T22:40:30.025Z,8.69
2023-04-20T22:42:36.094Z,8.70
2023-04-20T22:44:43.937Z,8.64
2023-04-20T22:46:51.025Z,8.59
2023-04-20T22:48:56.789Z,8.60
2023-04-20T22:51:03.040Z,8.60
2023-04-20T22:53:08.057Z,8.66
2023-04-20T22:55:14.776Z,8.62
2023-04-20T22:57:21.083Z,8.63
2023-04-20T22:59:26.617Z,8.61
2023-04-20T23:01:34.185Z,8.57
2023-04-20T23:03:39.545Z,8.53
2023-04-20T23:05:45.215Z,8.52
2023-04-20T23:07:50.306Z,8.53
2023-04-20T23:09:56.888Z,8.53
2023-04-20T23:12:03.546Z,8.54
2023-04-20T23:14:08.992Z,8.55
2023-04-20T23:16:14.043Z,8.56
2023-04-20T23:18:21.717Z,8.55
2023-04-20T23:20:28.014Z,8.53
2023-04-20T23:22:33.036Z,8.50
2023-04-20T23:24:38.830Z,8.50
2023-04-20T23:26:43.809Z,8.55
2023-04-20T23:28:48.808Z,8.55
2023-04-20T23:30:53.994Z,8.57
2023-04-20T23:32:59.036Z,8.60
2023-04-20T23:35:08.323Z,8.61
2023-04-20T23:37:13.342Z,8.61
2023-04-20T23:39:18.520Z,8.66
2023-04-20T23:41:25.256Z,8.60
2023-04-20T23:43:30.259Z,8.56
2023-04-20T23:45:35.995Z,8.56
2023-04-20T23:47:41.311Z,8.64
2023-04-20T23:49:46.358Z,8.84
2023-04-20T23:51:54.184Z,8.77
2023-04-20T23:53:59.201Z,8.64
2023-04-20T23:56:04.490Z,8.62
2023-04-20T23:58:09.495Z,8.60
